Time;durP1;ratioP1;P1;durP2;ratioP2;P2;SDS_P1;SDS_P2;PMS_P1;PMS_P2;Temp;Humidity;BMP_temperature;BMP_pressure;BME280_temperature;BME280_humidity;BME280_pressure;Samples;Min_cycle;Max_cycle;Signal;HPM_P1;HPM_P2
2022/10/30 00:04:15;;;;;;;;;;;;;;;13.01;100.00;101106.81;20519005;28;19927;-65
2022/10/30 00:14:36;;;;;;;;;;;;;;;12.89;100.00;101107.69;20516517;28;20464;-65
2022/10/30 00:24:57;;;;;;;;;;;;;;;12.73;100.00;101106.19;20511117;28;19934;-64
2022/10/30 00:35:19;;;;;;;;;;;;;;;12.72;100.00;101094.88;20512646;28;19966;-64
2022/10/30 00:45:40;;;;;;;;;;;;;;;12.73;100.00;101096.56;20513360;28;20441;-64
2022/10/30 00:56:04;;;;;;;;;;;;;;;12.65;100.00;101093.66;20513307;28;19962;-64
2022/10/30 01:06:27;;;;;;;;;;;;;;;12.73;100.00;101086.09;20513281;28;19973;-64
2022/10/30 01:16:52;;;;;;;;;;;;;;;12.80;100.00;101097.81;20514970;28;20523;-64
2022/10/30 01:27:19;;;;;;;;;;;;;;;12.83;100.00;101096.75;20516043;28;20490;-65
2022/10/30 01:38:10;;;;;;;;;;;;;;;13.00;100.00;101097.28;20524572;28;19930;-64
2022/10/30 01:48:31;;;;;;;;;;;;;;;13.41;100.00;101105.66;20510238;28;19968;-64
2022/10/30 01:59:00;;;;;;;;;;;;;;;13.62;100.00;101098.88;20505531;28;19926;-65
2022/10/30 02:09:21;;;;;;;;;;;;;;;13.46;100.00;101093.06;20503461;28;19933;-64
2022/10/30 02:19:43;;;;;;;;;;;;;;;13.38;100.00;101102.44;20501941;28;19961;-65
2022/10/30 02:30:05;;;;;;;;;;;;;;;13.49;100.00;101098.09;20509014;28;19926;-64
2022/10/30 02:40:27;;;;;;;;;;;;;;;13.32;100.00;101103.72;20504376;28;19926;-64
2022/10/30 02:50:48;;;;;;;;;;;;;;;13.30;100.00;101113.44;20525389;23;19986;-72
2022/10/30 03:01:10;;;;;;;;;;;;;;;13.23;100.00;101106.13;20504332;28;20414;-73
2022/10/30 03:11:33;;;;;;;;;;;;;;;13.10;100.00;101111.38;20516604;28;19926;-72
2022/10/30 03:21:54;;;;;;;;;;;;;;;13.22;100.00;101120.16;20525053;28;19993;-73
2022/10/30 03:32:16;;;;;;;;;;;;;;;13.31;100.00;101127.41;20536821;28;19970;-71
2022/10/30 03:42:40;;;;;;;;;;;;;;;13.37;100.00;101122.56;20511224;28;19981;-71
2022/10/30 03:53:02;;;;;;;;;;;;;;;13.22;100.00;101114.94;20529905;28;20253;-71
2022/10/30 04:03:23;;;;;;;;;;;;;;;12.94;100.00;101116.06;20523091;28;20001;-71
2022/10/30 04:13:45;;;;;;;;;;;;;;;12.93;100.00;101116.13;20521473;28;19926;-71
2022/10/30 04:24:06;;;;;;;;;;;;;;;12.99;100.00;101119.16;20527225;28;19931;-72
2022/10/30 04:34:27;;;;;;;;;;;;;;;12.83;100.00;101113.28;20576784;28;19997;-71
2022/10/30 04:44:49;;;;;;;;;;;;;;;12.77;100.00;101108.50;20526406;28;19930;-71
2022/10/30 04:55:10;;;;;;;;;;;;;;;12.85;100.00;101103.56;20528924;28;19974;-71
2022/10/30 05:05:32;;;;;;;;;;;;;;;13.00;100.00;101120.84;20599720;28;20341;-70
2022/10/30 05:15:54;;;;;;;;;;;;;;;12.92;100.00;101128.41;20535222;28;19926;-71
2022/10/30 05:26:15;;;;;;;;;;;;;;;12.63;100.00;101129.53;20518287;28;20574;-73
2022/10/30 05:36:37;;;;;;;;;;;;;;;12.44;100.00;101130.03;20514779;28;19930;-71
2022/10/30 05:46:58;;;;;;;;;;;;;;;12.33;100.00;101138.59;20511334;28;19956;-71
2022/10/30 05:57:19;;;;;;;;;;;;;;;12.28;100.00;101129.38;20524375;28;20346;-72
2022/10/30 06:07:41;;;;;;;;;;;;;;;12.12;100.00;101126.09;20520301;28;19980;-71
2022/10/30 06:18:02;;;;;;;;;;;;;;;12.36;100.00;101148.03;20510799;28;20001;-71
2022/10/30 06:28:23;;;;;;;;;;;;;;;12.18;100.00;101142.22;20518403;28;20463;-71
2022/10/30 06:38:45;;;;;;;;;;;;;;;12.15;100.00;101159.88;20509569;28;19926;-71
2022/10/30 06:49:06;;;;;;;;;;;;;;;12.05;100.00;101167.47;20509211;28;20013;-71
2022/10/30 06:59:27;;;;;;;;;;;;;;;12.05;100.00;101164.03;20526464;28;20266;-70
2022/10/30 07:09:49;;;;;;;;;;;;;;;12.14;100.00;101173.88;20535443;28;20145;-71
2022/10/30 07:20:10;;;;;;;;;;;;;;;12.33;100.00;101185.66;20528448;28;19930;-71
2022/10/30 07:30:31;;;;;;;;;;;;;;;12.48;100.00;101201.19;20516443;28;19969;-71
2022/10/30 07:40:53;;;;;;;;;;;;;;;12.57;100.00;101197.94;20513111;28;19926;-71
2022/10/30 07:51:14;;;;;;;;;;;;;;;12.87;100.00;101203.72;20514100;28;20108;-71
2022/10/30 08:01:36;;;;;;;;;;;;;;;13.11;100.00;101207.28;20528061;28;20002;-69
2022/10/30 08:11:57;;;;;;;;;;;;;;;13.23;100.00;101206.47;20513769;28;19933;-69
2022/10/30 08:22:19;;;;;;;;;;;;;;;13.53;100.00;101220.06;20554472;28;19914;-68
2022/10/30 08:32:40;;;;;;;;;;;;;;;13.71;100.00;101213.50;20557964;28;19998;-69
2022/10/30 08:43:01;;;;;;;;;;;;;;;13.67;100.00;101218.13;20527102;23;19973;-61
2022/10/30 08:53:23;;;;;;;;;;;;;;;13.98;100.00;101222.00;20440762;28;19950;-62
2022/10/30 09:03:45;;;;;;;;;;;;;;;14.07;100.00;101216.09;20419347;28;19990;-61
2022/10/30 09:14:06;;;;;;;;;;;;;;;14.45;100.00;101210.56;20423255;28;19931;-62
2022/10/30 09:24:27;;;;;;;;;;;;;;;14.69;100.00;101200.03;20415043;28;20001;-61
2022/10/30 09:34:49;;;;;;;;;;;;;;;14.80;100.00;101203.53;20404870;28;19934;-61
2022/10/30 09:45:19;;;;;;;;;;;;;;;14.98;100.00;101201.28;20409021;28;19927;-61
2022/10/30 09:55:56;;;;;;;;;;;;;;;15.03;100.00;101214.91;20413099;28;20255;-61
2022/10/30 10:06:19;;;;;;;;;;;;;;;15.14;100.00;101231.47;20415229;28;19927;-62
2022/10/30 10:16:42;;;;;;;;;;;;;;;15.28;100.00;101212.94;20405550;28;20682;-62
2022/10/30 10:27:03;;;;;;;;;;;;;;;15.42;100.00;101215.31;20413483;28;20003;-68
2022/10/30 10:37:28;;;;;;;;;;;;;;;15.80;99.67;101211.31;20413290;28;19931;-61
2022/10/30 10:48:00;;;;;;;;;;;;;;;15.91;99.90;101223.59;20420728;28;20380;-63
2022/10/30 10:58:26;;;;;;;;;;;;;;;16.10;99.70;101215.91;20426806;29;20282;-63
2022/10/30 11:08:48;;;;;;;;;;;;;;;16.37;96.99;101201.38;20414248;28;20432;-62
2022/10/30 11:19:09;;;;;;;;;;;;;;;16.30;98.85;101191.44;20416438;29;20053;-62
2022/10/30 11:29:31;;;;;;;;;;;;;;;16.47;97.99;101189.13;20420067;29;20454;-61
2022/10/30 11:40:10;;;;;;;;;;;;;;;16.66;97.49;101199.78;20443809;28;19931;-61
2022/10/30 11:50:32;;;;;;;;;;;;;;;16.78;96.41;101218.00;20437329;28;20405;-61
2022/10/30 12:00:59;;;;;;;;;;;;;;;16.85;95.72;101205.16;20433197;28;19930;-63
2022/10/30 12:11:26;;;;;;;;;;;;;;;16.99;94.97;101192.50;20424031;28;19982;-60
2022/10/30 12:21:49;;;;;;;;;;;;;;;16.94;95.64;101184.16;20421182;28;20141;-61
2022/10/30 12:32:15;;;;;;;;;;;;;;;17.07;94.17;101158.44;20449976;28;20359;-62
2022/10/30 12:42:38;;;;;;;;;;;;;;;17.15;94.16;101177.06;20425947;28;20413;-61
2022/10/30 12:53:20;;;;;;;;;;;;;;;17.45;93.04;101177.06;20434380;28;20756;-61
2022/10/30 13:03:50;;;;;;;;;;;;;;;17.38;92.93;101181.19;20420296;29;19950;-61
2022/10/30 13:14:15;;;;;;;;;;;;;;;17.26;94.17;101163.78;20428710;28;20187;-61
2022/10/30 13:24:36;;;;;;;;;;;;;;;17.26;93.66;101155.88;20438485;28;20200;-62
2022/10/30 13:35:14;;;;;;;;;;;;;;;17.25;93.88;101140.19;20431695;28;20290;-61
2022/10/30 13:45:56;;;;;;;;;;;;;;;17.29;94.52;101136.31;20429061;28;19956;-61
2022/10/30 13:56:20;;;;;;;;;;;;;;;17.23;95.27;101121.88;20430173;29;19973;-61
2022/10/30 14:06:42;;;;;;;;;;;;;;;17.35;94.61;101131.38;20460402;28;19934;-61
2022/10/30 14:17:13;;;;;;;;;;;;;;;17.25;95.06;101138.41;20433315;28;19927;-61
2022/10/30 14:27:35;;;;;;;;;;;;;;;17.03;98.18;101130.66;20421245;29;20013;-61
2022/10/30 14:37:56;;;;;;;;;;;;;;;17.06;99.10;101133.03;20440704;28;19934;-61
2022/10/30 14:48:44;;;;;;;;;;;;;;;16.98;98.43;101138.16;20500791;23;19930;-68
2022/10/30 14:59:12;;;;;;;;;;;;;;;16.73;99.56;101122.78;20513894;28;20063;-68
2022/10/30 15:09:42;;;;;;;;;;;;;;;16.72;100.00;101128.16;20530532;28;19929;-69
2022/10/30 15:20:06;;;;;;;;;;;;;;;16.57;100.00;101127.69;20531959;28;19926;-68
2022/10/30 15:30:27;;;;;;;;;;;;;;;16.18;100.00;101139.81;20524033;28;19930;-68
2022/10/30 15:40:50;;;;;;;;;;;;;;;16.06;100.00;101132.94;20517077;28;19970;-68
2022/10/30 15:51:15;;;;;;;;;;;;;;;15.73;100.00;101133.06;20517769;28;19938;-69
2022/10/30 16:01:44;;;;;;;;;;;;;;;15.62;100.00;101128.69;20520648;28;19957;-70
2022/10/30 16:12:08;;;;;;;;;;;;;;;15.31;100.00;101125.97;20575805;28;19930;-68
2022/10/30 16:22:34;;;;;;;;;;;;;;;15.17;100.00;101118.31;20547803;28;19934;-68
2022/10/30 16:32:57;;;;;;;;;;;;;;;15.08;100.00;101129.56;20515994;28;19993;-68
2022/10/30 16:43:29;;;;;;;;;;;;;;;15.01;100.00;101136.22;20560254;28;19930;-68
2022/10/30 16:53:51;;;;;;;;;;;;;;;14.80;100.00;101140.53;20509854;28;19934;-68
2022/10/30 17:04:14;;;;;;;;;;;;;;;14.76;100.00;101149.59;20502721;28;19927;-74
2022/10/30 17:14:40;;;;;;;;;;;;;;;14.61;100.00;101158.63;20498340;28;19993;-72
2022/10/30 17:25:13;;;;;;;;;;;;;;;14.49;100.00;101180.53;20501567;28;19946;-75
2022/10/30 17:35:34;;;;;;;;;;;;;;;14.53;100.00;101176.75;20514472;28;19930;-72
2022/10/30 17:45:56;;;;;;;;;;;;;;;14.35;100.00;101184.31;20482221;28;20062;-74
2022/10/30 17:56:20;;;;;;;;;;;;;;;14.24;100.00;101190.34;20516754;28;19927;-78
2022/10/30 18:06:42;;;;;;;;;;;;;;;14.18;100.00;101198.69;20506684;28;20007;-73
2022/10/30 18:17:03;;;;;;;;;;;;;;;14.23;100.00;101191.28;20503308;28;19938;-74
2022/10/30 18:27:25;;;;;;;;;;;;;;;14.22;100.00;101194.03;20509269;28;20373;-72
2022/10/30 18:37:46;;;;;;;;;;;;;;;14.13;100.00;101211.28;20514189;28;19926;-74
2022/10/30 18:48:07;;;;;;;;;;;;;;;14.07;100.00;101229.22;20518183;28;19927;-75
2022/10/30 18:58:29;;;;;;;;;;;;;;;14.00;100.00;101231.44;20517514;28;19975;-79
2022/10/30 19:08:50;;;;;;;;;;;;;;;13.93;100.00;101239.84;20499813;28;20653;-72
2022/10/30 19:19:13;;;;;;;;;;;;;;;13.85;100.00;101247.41;20493333;28;19930;-73
2022/10/30 19:29:35;;;;;;;;;;;;;;;13.79;100.00;101242.63;20496134;28;19957;-72
2022/10/30 19:39:58;;;;;;;;;;;;;;;13.67;100.00;101253.97;20498139;28;20594;-75
2022/10/30 19:50:19;;;;;;;;;;;;;;;13.67;100.00;101259.22;20521333;28;20033;-74
2022/10/30 20:00:42;;;;;;;;;;;;;;;13.64;100.00;101241.09;20493478;28;20006;-75
2022/10/30 20:11:04;;;;;;;;;;;;;;;13.64;100.00;101256.81;20573889;28;19980;-74
2022/10/30 20:21:26;;;;;;;;;;;;;;;13.55;100.00;101242.56;20502227;28;19977;-73
2022/10/30 20:31:47;;;;;;;;;;;;;;;13.40;100.00;101250.63;20501191;28;20959;-75
2022/10/30 20:42:10;;;;;;;;;;;;;;;13.28;100.00;101254.09;20583625;28;20097;-76
2022/10/30 20:52:31;;;;;;;;;;;;;;;13.33;100.00;101291.31;20439023;23;19982;-61
2022/10/30 21:02:53;;;;;;;;;;;;;;;13.67;100.00;101301.13;20385489;29;20053;-61
2022/10/30 21:13:14;;;;;;;;;;;;;;;13.78;100.00;101314.31;20369291;29;19937;-61
2022/10/30 21:23:35;;;;;;;;;;;;;;;13.66;100.00;101310.75;20406859;29;20029;-61
2022/10/30 21:33:57;;;;;;;;;;;;;;;13.59;100.00;101301.66;20405813;29;20275;-61
2022/10/30 21:44:18;;;;;;;;;;;;;;;13.64;100.00;101319.69;20404268;29;19974;-61
2022/10/30 21:54:39;;;;;;;;;;;;;;;13.54;100.00;101326.47;20407894;28;19937;-61
2022/10/30 22:05:01;;;;;;;;;;;;;;;13.57;100.00;101350.69;20395842;28;20031;-61
2022/10/30 22:15:22;;;;;;;;;;;;;;;13.49;100.00;101350.38;20388939;28;20575;-62
2022/10/30 22:25:52;;;;;;;;;;;;;;;13.52;100.00;101363.25;20408676;28;20024;-61
2022/10/30 22:36:23;;;;;;;;;;;;;;;13.45;100.00;101363.78;20403580;29;19935;-61
2022/10/30 22:46:44;;;;;;;;;;;;;;;13.25;100.00;101380.00;20419321;28;19966;-61
2022/10/30 22:57:06;;;;;;;;;;;;;;;13.50;100.00;101383.47;20417322;29;19927;-61
2022/10/30 23:07:27;;;;;;;;;;;;;;;13.25;100.00;101393.06;20421894;28;20318;-61
2022/10/30 23:17:49;;;;;;;;;;;;;;;13.27;100.00;101395.63;20412735;29;20385;-61
2022/10/30 23:28:10;;;;;;;;;;;;;;;12.88;100.00;101399.03;20414540;29;19966;-61
2022/10/30 23:38:31;;;;;;;;;;;;;;;12.92;100.00;101418.88;20430974;28;20023;-61
2022/10/30 23:48:53;;;;;;;;;;;;;;;12.67;100.00;101407.41;20432583;29;19927;-61
2022/10/30 23:59:15;;;;;;;;;;;;;;;12.70;100.00;101421.13;20432618;28;19994;-62
